Terminal Aerodrome Forecast
Issued by NWS

Home | Current Version | Previous Version | Graphics & Text | Print | Product List | Glossary On
Versions: 1 2 3 4 5 6 7 8 9 10 11 12 13 14 15 16 17
540
FTUS43 KICT 251124
TAFHUT
TAF
KHUT 251124Z 2512/2612 31009KT P6SM SKC
     FM251800 22008KT P6SM BKN120
     FM252300 18007KT P6SM SCT250=

USA.gov is the U.S. government's official web portal to all federal, state and local government web resources and services.